Time;durP1;ratioP1;P1;durP2;ratioP2;P2;SDS_P1;SDS_P2;PMS_P1;PMS_P2;Temp;Humidity;BMP_temperature;BMP_pressure;BME280_temperature;BME280_humidity;BME280_pressure;Samples;Min_cycle;Max_cycle;Signal;HPM_P1;HPM_P2
2021/10/17 00:00:47;;;;;;;7.13;2.25;;;11.10;99.90;;;11.54;75.64;101638.22;5073932;28;20262;-68
2021/10/17 00:03:14;;;;;;;10.82;2.33;;;11.00;99.90;;;11.54;75.80;101638.22;5073641;28;20216;-69
2021/10/17 00:05:41;;;;;;;9.88;2.78;;;11.00;99.90;;;11.54;75.91;101632.16;5069928;28;20196;-69
2021/10/17 00:08:09;;;;;;;10.80;2.80;;;11.00;99.90;;;11.54;75.78;101635.59;5066931;28;20200;-69
2021/10/17 00:10:37;;;;;;;9.35;2.42;;;11.00;99.90;;;11.52;75.69;101632.16;5070189;28;20193;-69
2021/10/17 00:13:09;;;;;;;7.82;2.42;;;11.00;99.90;;;11.50;75.60;101628.75;5074639;28;20200;-69
2021/10/17 00:15:39;;;;;;;10.77;2.50;;;11.00;99.90;;;11.50;75.69;101620.00;5071324;28;20192;-68
2021/10/17 00:18:08;;;;;;;7.40;2.50;;;11.00;99.90;;;11.49;75.78;101613.91;5074599;28;20199;-69
2021/10/17 00:20:39;;;;;;;8.07;2.50;;;11.00;99.90;;;11.50;75.98;101623.50;5061388;28;20189;-68
2021/10/17 00:23:06;;;;;;;9.93;2.13;;;11.00;99.90;;;11.50;76.00;101628.75;5071470;28;20311;-69
2021/10/17 00:25:33;;;;;;;9.60;2.40;;;11.00;99.90;;;11.51;75.84;101626.97;5073569;28;20192;-69
2021/10/17 00:28:01;;;;;;;10.55;2.13;;;11.00;99.90;;;11.49;75.96;101626.16;5066546;28;20184;-71
2021/10/17 00:30:41;;;;;;;7.70;2.08;;;11.00;99.90;;;11.51;75.80;101627.81;5066172;28;20207;-69
2021/10/17 00:33:08;;;;;;;7.65;2.00;;;11.00;99.90;;;11.51;75.91;101632.19;5074667;28;20302;-69
2021/10/17 00:35:36;;;;;;;6.75;2.17;;;11.00;99.90;;;11.51;76.04;101630.44;5071349;28;20203;-70
2021/10/17 00:38:03;;;;;;;9.10;2.38;;;11.00;99.90;;;11.50;75.97;101628.75;5071229;28;20206;-70
2021/10/17 00:40:30;;;;;;;9.10;2.40;;;11.00;99.90;;;11.48;75.91;101621.81;5070800;28;20659;-69
2021/10/17 00:42:57;;;;;;;10.50;2.13;;;11.00;99.90;;;11.47;75.83;101625.34;5073883;28;20184;-68
2021/10/17 00:45:27;;;;;;;7.60;2.42;;;11.00;99.90;;;11.46;75.99;101623.59;5074174;28;20670;-69
2021/10/17 00:47:55;;;;;;;7.80;2.40;;;10.90;99.90;;;11.43;75.96;101627.19;5065209;28;20188;-68
2021/10/17 00:50:22;;;;;;;8.90;2.63;;;10.90;99.90;;;11.40;75.51;101624.66;5082569;28;20193;-68
2021/10/17 00:52:49;;;;;;;7.40;2.42;;;10.90;99.90;;;11.41;75.67;101626.34;5083440;28;20200;-69
2021/10/17 00:55:19;;;;;;;7.40;2.55;;;10.90;99.90;;;11.39;75.26;101622.91;5085463;28;20208;-70
2021/10/17 00:57:47;;;;;;;12.57;2.65;;;10.90;99.90;;;11.36;75.18;101617.75;5070851;28;20192;-70
2021/10/17 01:00:16;;;;;;;9.82;2.42;;;10.90;99.90;;;11.35;75.07;101611.63;5071801;28;20192;-68
2021/10/17 01:02:44;;;;;;;11.18;2.90;;;10.90;99.90;;;11.36;74.91;101617.75;5064460;28;20207;-66
2021/10/17 01:05:15;;;;;;;9.30;2.40;;;10.90;99.90;;;11.36;75.00;101615.13;5068135;28;20204;-67
2021/10/17 01:07:43;;;;;;;10.43;2.45;;;10.90;99.90;;;11.34;74.73;101609.94;5066021;28;20189;-69
2021/10/17 01:10:13;;;;;;;8.52;2.25;;;10.90;99.90;;;11.35;74.80;101616.88;5084756;28;20196;-68
2021/10/17 01:12:40;;;;;;;10.65;2.42;;;10.90;99.90;;;11.36;74.74;101613.38;5066897;28;20196;-68
2021/10/17 01:15:09;;;;;;;9.10;2.13;;;10.90;99.90;;;11.36;74.48;101615.13;5065608;28;20244;-69
2021/10/17 01:17:43;;;;;;;9.65;2.55;;;10.90;99.90;;;11.32;74.08;101611.72;5066917;28;21585;-69
2021/10/17 01:20:12;;;;;;;7.38;2.35;;;10.80;99.90;;;11.33;73.60;101617.84;5087384;28;20188;-69
2021/10/17 01:22:42;;;;;;;7.90;2.30;;;10.80;99.90;;;11.31;73.58;101610.03;5069164;28;20211;-69
2021/10/17 01:25:10;;;;;;;10.50;3.20;;;10.80;99.90;;;11.32;73.62;101600.38;5069633;28;20211;-68
2021/10/17 01:27:37;;;;;;;7.32;1.98;;;10.80;99.90;;;11.31;73.35;101604.78;5064838;28;20682;-68
2021/10/17 01:30:06;;;;;;;9.32;2.15;;;10.80;99.90;;;11.31;73.26;101598.66;5084167;28;20280;-69
2021/10/17 01:32:33;;;;;;;7.97;2.13;;;10.80;99.90;;;11.30;73.16;101595.19;5084662;28;20724;-69
2021/10/17 01:35:01;;;;;;;7.40;2.10;;;10.80;99.90;;;11.30;73.20;101591.72;5061300;28;20270;-67
2021/10/17 01:37:30;;;;;;;7.40;2.10;;;10.80;99.90;;;11.29;73.05;101589.97;5061928;28;20620;-69
2021/10/17 01:39:57;;;;;;;9.98;2.22;;;10.80;99.90;;;11.29;72.99;101589.97;5066329;28;20625;-68
2021/10/17 01:42:24;;;;;;;6.57;1.80;;;10.80;99.90;;;11.28;73.07;101583.91;5070714;28;20383;-68
2021/10/17 01:44:56;;;;;;;9.32;2.00;;;10.80;99.90;;;11.26;72.89;101592.69;5064516;28;20288;-68
2021/10/17 01:47:23;;;;;;;5.65;1.88;;;10.80;99.90;;;11.25;72.86;101580.50;5079525;28;20686;-68
2021/10/17 01:49:51;;;;;;;6.90;2.00;;;10.80;99.90;;;11.23;73.13;101585.78;5065809;28;20195;-68
2021/10/17 01:52:18;;;;;;;11.25;2.30;;;10.80;99.90;;;11.20;72.89;101585.84;5077320;28;20192;-68
2021/10/17 01:54:50;;;;;;;8.60;2.30;;;10.70;99.90;;;11.20;72.79;101579.75;5065141;28;20211;-68
2021/10/17 01:57:21;;;;;;;8.93;2.00;;;10.70;99.90;;;11.21;72.83;101578.84;5064989;28;20280;-69
2021/10/17 01:59:48;;;;;;;8.70;2.28;;;10.70;99.90;;;11.17;72.84;101574.56;5086231;28;20257;-69
2021/10/17 02:02:25;;;;;;;7.32;2.20;;;10.70;99.90;;;11.16;72.77;101570.25;5069739;28;20221;-68
2021/10/17 02:04:53;;;;;;;7.18;2.22;;;10.70;99.90;;;11.15;72.65;101569.38;5065306;28;20716;-69
2021/10/17 02:07:20;;;;;;;9.82;2.65;;;10.70;99.90;;;11.12;72.42;101564.22;5085199;28;20665;-68
2021/10/17 02:09:47;;;;;;;8.98;2.33;;;10.60;99.90;;;11.11;72.37;101559.03;5066362;28;20187;-68
2021/10/17 02:12:21;;;;;;;9.52;2.33;;;10.60;99.90;;;11.10;72.38;101566.03;5061619;28;20197;-68
2021/10/17 02:14:47;;;;;;;7.63;2.17;;;10.60;99.90;;;11.10;72.04;101558.16;5057206;28;20297;-68
2021/10/17 02:17:15;;;;;;;7.53;2.10;;;10.60;99.90;;;11.15;72.27;101560.69;5084580;28;20608;-70
2021/10/17 02:19:42;;;;;;;11.98;2.20;;;10.60;99.90;;;11.15;71.90;101558.06;5069979;28;20184;-68
2021/10/17 02:22:08;;;;;;;8.23;2.17;;;10.60;99.90;;;11.16;71.63;101555.41;5068091;28;20287;-68
2021/10/17 02:24:35;;;;;;;6.80;2.00;;;10.60;99.90;;;11.14;71.42;101554.56;5065083;28;20227;-68
2021/10/17 02:27:02;;;;;;;7.20;2.20;;;10.60;99.90;;;11.15;71.05;101551.03;5070085;28;20211;-69
2021/10/17 02:29:35;;;;;;;8.00;2.45;;;10.70;99.90;;;11.17;71.06;101556.22;5067665;28;20188;-69
2021/10/17 02:32:22;;;;;;;7.70;2.10;;;10.70;99.90;;;11.19;70.96;101551.81;5062950;28;20204;-68
2021/10/17 02:34:56;;;;;;;9.10;2.10;;;10.70;99.90;;;11.21;70.90;101547.41;5061793;28;20722;-68
2021/10/17 02:37:23;;;;;;;8.98;2.05;;;10.70;99.90;;;11.21;70.70;101550.03;5069079;28;20191;-68
2021/10/17 02:39:49;;;;;;;7.78;2.40;;;10.70;99.90;;;11.21;70.58;101548.28;5064466;28;20534;-69
2021/10/17 02:42:17;;;;;;;11.40;2.47;;;10.70;99.90;;;11.21;70.52;101545.66;5067489;28;20226;-68
2021/10/17 02:44:48;;;;;;;7.18;1.90;;;10.70;99.90;;;11.24;70.47;101544.69;5066947;28;20244;-69
2021/10/17 02:47:15;;;;;;;8.80;2.40;;;10.70;99.90;;;11.24;70.56;101549.94;5081571;28;20581;-69
2021/10/17 02:49:42;;;;;;;9.10;2.42;;;10.70;99.90;;;11.21;70.62;101545.66;5063374;28;20212;-68
2021/10/17 02:52:09;;;;;;;9.60;2.05;;;10.70;99.90;;;11.16;70.41;101539.69;5083840;28;20204;-68
2021/10/17 02:54:36;;;;;;;7.05;2.17;;;10.70;99.90;;;11.14;70.51;101536.25;5060333;28;20701;-69
2021/10/17 02:57:03;;;;;;;7.97;2.17;;;10.70;99.90;;;11.12;70.77;101542.41;5065520;28;20200;-67
2021/10/17 02:59:30;;;;;;;9.05;2.15;;;10.60;99.90;;;11.11;71.07;101532.84;5065415;28;20468;-69
2021/10/17 03:01:59;;;;;;;8.45;2.25;;;10.60;99.90;;;11.13;71.07;101531.03;5076243;28;20616;-70
2021/10/17 03:04:27;;;;;;;10.10;2.72;;;10.60;99.90;;;11.14;71.19;101528.38;5060941;28;20217;-69
2021/10/17 03:06:57;;;;;;;9.13;2.63;;;10.70;99.90;;;11.15;71.37;101534.50;5061668;28;20224;-67
2021/10/17 03:09:24;;;;;;;8.65;2.63;;;10.60;99.90;;;11.14;71.35;101530.13;5072120;28;20208;-70
2021/10/17 03:11:52;;;;;;;9.05;2.40;;;10.60;99.90;;;11.13;71.62;101541.53;5070102;28;20303;-69
2021/10/17 03:14:19;;;;;;;10.63;2.40;;;10.60;99.90;;;11.10;71.76;101537.22;5067002;28;20218;-69
2021/10/17 03:16:46;;;;;;;9.02;2.53;;;10.60;99.90;;;11.11;72.02;101543.31;5070282;28;20200;-69
2021/10/17 03:19:16;;;;;;;8.98;2.40;;;10.60;99.90;;;11.11;72.11;101546.81;5066257;28;20555;-68
2021/10/17 03:21:45;;;;;;;10.10;2.50;;;10.60;99.90;;;11.07;72.17;101536.41;5068880;28;20196;-69
2021/10/17 03:24:12;;;;;;;9.50;2.20;;;10.60;99.90;;;11.04;72.21;101541.75;5072384;28;20614;-69
2021/10/17 03:26:39;;;;;;;10.30;2.20;;;10.60;99.90;;;11.05;72.25;101535.63;5064353;28;20250;-68
2021/10/17 03:29:06;;;;;;;8.85;2.08;;;10.60;99.90;;;11.05;72.54;101531.22;5069342;28;20208;-69
2021/10/17 03:31:38;;;;;;;8.70;2.35;;;10.60;99.90;;;11.06;72.12;101524.25;5073983;28;20611;-69
2021/10/17 03:34:06;;;;;;;7.95;2.33;;;10.50;99.90;;;11.05;72.30;101517.28;5069154;28;20204;-69
2021/10/17 03:36:34;;;;;;;11.35;2.47;;;10.50;99.90;;;11.05;72.56;101512.06;5061911;28;20910;-68
2021/10/17 03:39:01;;;;;;;8.70;2.10;;;10.50;99.90;;;11.01;72.62;101518.25;5087058;28;20192;-66
2021/10/17 03:41:30;;;;;;;7.30;2.00;;;10.50;99.90;;;10.97;72.53;101516.63;5076176;28;20192;-69
2021/10/17 03:43:57;;;;;;;9.38;2.20;;;10.40;99.90;;;10.92;72.63;101510.63;5070785;28;20212;-68
2021/10/17 03:46:24;;;;;;;7.95;2.42;;;10.40;99.90;;;10.90;72.73;101521.16;5071821;28;20247;-69
2021/10/17 03:48:53;;;;;;;9.27;2.28;;;10.30;99.90;;;10.89;72.69;101513.34;5073703;28;20184;-68
2021/10/17 03:51:24;;;;;;;7.65;2.10;;;10.30;99.90;;;10.87;72.59;101512.50;5072431;28;20192;-69
2021/10/17 03:53:53;;;;;;;7.65;2.35;;;10.30;99.90;;;10.85;72.38;101514.34;5072683;28;20727;-69
2021/10/17 03:56:20;;;;;;;6.97;2.10;;;10.30;99.90;;;10.82;72.57;101511.78;5073857;28;20188;-69
2021/10/17 03:58:47;;;;;;;8.13;2.55;;;10.20;99.90;;;10.76;72.77;101509.31;5092461;28;20374;-68
2021/10/17 04:01:14;;;;;;;5.85;2.15;;;10.20;99.90;;;10.76;72.73;101514.56;5071717;28;20576;-67
2021/10/17 04:03:41;;;;;;;10.35;2.67;;;10.10;99.90;;;10.71;72.78;101517.31;5080548;28;20208;-66
2021/10/17 04:06:09;;;;;;;8.55;2.30;;;10.10;99.90;;;10.70;72.77;101520.78;5066213;28;20602;-68
2021/10/17 04:08:39;;;;;;;6.75;2.20;;;10.10;99.90;;;10.69;72.79;101515.59;5065435;28;20192;-69
2021/10/17 04:11:07;;;;;;;9.73;2.65;;;10.10;99.90;;;10.66;73.22;101515.69;5073785;28;20549;-68
2021/10/17 04:13:33;;;;;;;12.35;2.85;;;10.00;99.90;;;10.66;73.18;101518.31;5069110;28;20211;-68
2021/10/17 04:16:02;;;;;;;8.43;2.30;;;10.00;99.90;;;10.66;73.26;101508.72;5084322;28;20196;-68
2021/10/17 04:18:29;;;;;;;7.80;2.08;;;10.10;99.90;;;10.65;73.31;101511.38;5076212;28;20204;-69
2021/10/17 04:20:57;;;;;;;8.57;2.20;;;10.00;99.90;;;10.64;73.31;101507.88;5067849;28;20194;-69
2021/10/17 04:23:25;;;;;;;8.30;2.05;;;10.00;99.90;;;10.62;73.38;101516.66;5072050;28;20218;-69
2021/10/17 04:25:52;;;;;;;10.05;2.50;;;10.00;99.90;;;10.61;73.74;101514.94;5073341;28;20212;-68
2021/10/17 04:28:23;;;;;;;11.02;2.22;;;10.00;99.90;;;10.58;73.77;101515.91;5074893;28;20184;-68
2021/10/17 04:30:52;;;;;;;6.30;2.15;;;10.00;99.90;;;10.56;73.93;101511.56;5079681;28;20203;-68
2021/10/17 04:33:19;;;;;;;8.90;2.60;;;9.90;99.90;;;10.52;74.20;101507.31;5065421;28;20251;-68
2021/10/17 04:35:46;;;;;;;9.13;2.50;;;9.90;99.90;;;10.47;74.42;101506.56;5076804;28;20227;-68
2021/10/17 04:38:14;;;;;;;6.80;2.28;;;9.90;99.90;;;10.42;74.61;101513.66;5070659;28;20196;-68
2021/10/17 04:40:43;;;;;;;8.48;2.35;;;9.80;99.90;;;10.39;74.91;101509.38;5071004;28;20205;-67
2021/10/17 04:43:13;;;;;;;8.18;2.38;;;9.80;99.90;;;10.36;75.17;101508.59;5086319;28;20216;-68
2021/10/17 04:45:43;;;;;;;7.72;2.15;;;9.80;99.90;;;10.35;75.17;101512.94;5064942;28;20238;-68
2021/10/17 04:48:12;;;;;;;8.65;2.25;;;9.80;99.90;;;10.35;75.42;101518.19;5074029;28;20192;-68
2021/10/17 04:50:39;;;;;;;5.82;1.83;;;9.80;99.90;;;10.32;75.36;101510.41;5061412;28;20709;-69
2021/10/17 04:53:06;;;;;;;8.93;2.20;;;9.80;99.90;;;10.30;75.49;101519.22;5085374;28;20196;-68
2021/10/17 04:55:33;;;;;;;12.85;2.78;;;9.70;99.90;;;10.27;75.54;101507.03;5057733;28;20200;-68
2021/10/17 04:58:02;;;;;;;8.30;2.30;;;9.70;99.90;;;10.27;75.61;101507.03;5067476;28;20191;-68
2021/10/17 05:00:30;;;;;;;9.23;2.15;;;9.70;99.90;;;10.27;75.33;101509.66;5068017;28;20189;-68
2021/10/17 05:03:01;;;;;;;8.10;2.20;;;9.70;99.90;;;10.24;75.52;101512.34;5072860;28;20215;-69
2021/10/17 05:05:28;;;;;;;7.95;2.47;;;9.60;99.90;;;10.23;75.30;101509.78;5063710;28;20216;-69
2021/10/17 05:07:57;;;;;;;12.40;2.25;;;9.60;99.90;;;10.23;75.50;101515.00;5070318;28;20726;-69
2021/10/17 05:10:24;;;;;;;9.27;2.10;;;9.60;99.90;;;10.21;75.36;101508.94;5069136;28;20579;-69
2021/10/17 05:12:51;;;;;;;10.55;2.20;;;9.60;99.90;;;10.19;75.07;101516.81;5068730;28;20291;-68
2021/10/17 05:15:19;;;;;;;9.90;2.15;;;9.60;99.90;;;10.17;75.32;101518.63;5086847;28;20247;-67
2021/10/17 05:17:46;;;;;;;9.98;2.88;;;9.50;99.90;;;10.18;75.24;101514.25;5085905;28;20575;-68
2021/10/17 05:20:15;;;;;;;9.38;2.20;;;9.50;99.90;;;10.17;74.78;101521.22;5085940;28;20191;-67
2021/10/17 05:22:43;;;;;;;10.70;2.60;;;9.50;99.90;;;10.13;74.80;101516.94;5083140;28;20184;-68
2021/10/17 05:25:13;;;;;;;6.63;2.05;;;9.50;99.90;;;10.11;74.75;101519.59;5070277;28;20231;-67
2021/10/17 05:27:41;;;;;;;8.77;2.17;;;9.50;99.90;;;10.11;74.70;101519.59;5070586;28;20220;-69
2021/10/17 05:30:09;;;;;;;11.70;2.50;;;9.50;99.90;;;10.11;74.63;101518.75;5067707;28;20675;-69
2021/10/17 05:32:36;;;;;;;8.43;2.30;;;9.50;99.90;;;10.11;74.50;101527.44;5091959;28;20189;-69
2021/10/17 05:35:04;;;;;;;11.07;2.17;;;9.50;99.90;;;10.09;74.25;101516.19;5071865;28;20217;-70
2021/10/17 05:37:32;;;;;;;7.20;1.95;;;9.50;99.90;;;10.09;74.05;101521.41;5050921;28;20200;-69
2021/10/17 05:39:59;;;;;;;8.27;2.17;;;9.50;99.90;;;10.09;74.00;101521.41;5076796;28;20222;-67
2021/10/17 05:42:26;;;;;;;8.32;2.40;;;9.50;99.90;;;10.12;73.94;101523.09;5073338;28;20277;-70
2021/10/17 05:44:53;;;;;;;10.40;2.50;;;9.60;99.90;;;10.13;73.93;101523.06;5071484;28;20269;-69
2021/10/17 05:47:22;;;;;;;8.18;2.10;;;9.60;99.90;;;10.17;73.64;101533.44;5053563;28;20200;-69
2021/10/17 05:49:49;;;;;;;9.65;2.28;;;9.60;99.90;;;10.14;73.63;101521.31;5051623;28;20391;-70
2021/10/17 05:52:16;;;;;;;10.90;2.38;;;9.60;99.90;;;10.13;73.44;101523.06;5051623;28;20192;-69
2021/10/17 05:54:44;;;;;;;10.10;2.33;;;9.60;99.90;;;10.15;73.59;101535.25;5051428;28;20213;-69
2021/10/17 05:57:11;;;;;;;8.05;2.42;;;9.60;99.90;;;10.15;73.27;101530.03;5051456;28;20223;-70
2021/10/17 05:59:38;;;;;;;9.50;2.30;;;9.60;99.90;;;10.13;73.52;101533.50;5069894;28;20203;-71
2021/10/17 06:02:05;;;;;;;12.32;2.38;;;9.70;99.90;;;10.15;73.46;101540.47;5070908;28;20199;-69
2021/10/17 06:04:36;;;;;;;10.70;2.17;;;9.70;99.90;;;10.18;73.63;101540.41;5068995;28;20731;-69
2021/10/17 06:07:07;;;;;;;8.02;2.05;;;9.70;99.90;;;10.21;73.67;101535.09;5068194;28;20207;-70
2021/10/17 06:09:35;;;;;;;9.35;2.30;;;9.70;99.90;;;10.21;73.52;101535.09;5062909;28;20192;-70
2021/10/17 06:12:07;;;;;;;7.85;2.35;;;9.70;99.90;;;10.21;73.53;101542.94;5081994;28;20207;-69
2021/10/17 06:14:36;;;;;;;9.77;2.25;;;9.70;99.90;;;10.23;73.67;101538.53;5060189;28;20224;-69
2021/10/17 06:17:04;;;;;;;9.85;2.38;;;9.80;99.90;;;10.25;73.67;101542.00;5063590;28;20187;-69
2021/10/17 06:19:31;;;;;;;7.50;2.10;;;9.80;99.90;;;10.24;73.53;101533.28;5082233;28;20219;-69
2021/10/17 06:22:03;;;;;;;8.10;1.80;;;9.80;99.90;;;10.23;73.31;101533.31;5069536;28;21006;-69
2021/10/17 06:24:32;;;;;;;9.50;2.30;;;9.80;99.90;;;10.25;73.73;101537.59;5079181;28;21077;-70
2021/10/17 06:26:58;;;;;;;13.07;2.28;;;9.80;99.90;;;10.27;73.48;101540.19;5077858;28;20212;-69
2021/10/17 06:29:27;;;;;;;9.18;2.45;;;9.80;99.90;;;10.30;73.51;101540.13;5067122;28;20280;-69
2021/10/17 06:31:54;;;;;;;10.25;2.47;;;9.80;99.90;;;10.30;73.42;101540.97;5063904;28;20197;-68
2021/10/17 06:34:22;;;;;;;7.85;2.40;;;9.80;99.90;;;10.27;73.56;101548.91;5057555;28;20299;-69
2021/10/17 06:36:49;;;;;;;8.05;2.13;;;9.80;99.90;;;10.27;73.38;101545.41;5060539;28;20203;-68
2021/10/17 06:39:16;;;;;;;9.98;1.98;;;9.80;99.90;;;10.25;73.48;101555.06;5055029;28;20585;-71
2021/10/17 06:41:43;;;;;;;8.65;2.28;;;9.80;99.90;;;10.24;73.37;101556.81;5062745;28;20664;-70
2021/10/17 06:44:16;;;;;;;8.80;2.50;;;9.80;99.90;;;10.25;73.20;101555.06;5080480;28;20232;-71
2021/10/17 06:46:49;;;;;;;10.00;2.30;;;9.80;99.90;;;10.27;73.13;101556.75;5068631;28;20629;-71
2021/10/17 06:49:17;;;;;;;7.57;2.47;;;9.90;99.90;;;10.31;73.20;101560.16;5080217;28;20196;-71
2021/10/17 06:51:44;;;;;;;8.57;2.25;;;9.90;99.90;;;10.32;72.86;101564.47;5060514;28;20203;-70
2021/10/17 06:54:13;;;;;;;8.27;2.20;;;9.90;99.90;;;10.35;73.07;101564.44;5078119;28;20270;-70
2021/10/17 06:56:39;;;;;;;12.50;2.60;;;9.90;99.90;;;10.38;72.93;101561.75;5060905;28;20192;-71
2021/10/17 06:59:06;;;;;;;11.57;2.53;;;10.00;99.90;;;10.38;72.67;101560.00;5078114;28;20192;-70
2021/10/17 07:01:36;;;;;;;6.75;2.17;;;10.00;99.90;;;10.41;72.68;101557.28;5072346;28;20266;-70
2021/10/17 07:04:05;;;;;;;10.40;2.35;;;10.00;99.90;;;10.41;72.45;101559.03;5085944;28;20243;-69
2021/10/17 07:06:40;;;;;;;8.10;2.20;;;10.00;99.90;;;10.44;72.47;101558.97;5067990;28;20238;-70
2021/10/17 07:09:10;;;;;;;11.95;2.53;;;10.00;99.90;;;10.46;72.21;101555.44;5063450;28;20566;-68
2021/10/17 07:11:42;;;;;;;12.75;3.47;;;10.10;99.90;;;10.51;72.30;101552.69;5069970;28;20222;-70
2021/10/17 07:14:16;;;;;;;9.98;3.03;;;10.10;99.90;;;10.56;72.63;101554.31;5070148;28;20326;-70
2021/10/17 07:16:56;;;;;;;10.07;2.38;;;10.10;99.90;;;10.58;72.56;101552.53;5063062;28;20192;-67
2021/10/17 07:19:25;;;;;;;10.75;2.80;;;10.20;99.90;;;10.62;72.60;101548.06;5076258;28;20229;-70
2021/10/17 07:21:52;;;;;;;9.77;2.53;;;10.20;99.90;;;10.65;72.46;101558.47;5067402;28;20197;-71
2021/10/17 07:24:19;;;;;;;10.50;3.15;;;10.20;99.90;;;10.65;72.30;101561.94;5078581;28;20250;-70
2021/10/17 07:26:50;;;;;;;9.50;3.42;;;10.30;99.90;;;10.66;73.05;101554.94;5065347;28;20684;-70
2021/10/17 07:29:17;;;;;;;10.02;3.22;;;10.30;99.90;;;10.67;73.09;101564.50;5066061;28;20663;-70
2021/10/17 07:31:44;;;;;;;8.13;2.22;;;10.30;99.90;;;10.64;73.50;101565.47;5075291;28;20298;-70
2021/10/17 07:34:11;;;;;;;12.13;2.80;;;10.30;99.90;;;10.63;73.36;101560.25;5078424;28;20239;-69
2021/10/17 07:36:39;;;;;;;8.57;2.53;;;10.30;99.90;;;10.66;73.17;101570.66;5063120;28;20196;-71
2021/10/17 07:39:12;;;;;;;12.00;3.53;;;10.30;99.90;;;10.66;73.05;101566.28;5078479;28;20740;-72
2021/10/17 07:41:47;;;;;;;9.43;2.75;;;10.30;99.90;;;10.67;73.70;101567.13;5081766;28;20189;-71
2021/10/17 07:44:15;;;;;;;9.10;2.40;;;10.30;99.90;;;10.68;73.44;101563.63;5065260;28;20293;-70
2021/10/17 07:46:57;;;;;;;8.98;2.42;;;10.40;99.90;;;10.71;73.35;101566.16;5073743;28;20200;-68
2021/10/17 07:49:27;;;;;;;8.88;2.42;;;10.40;99.90;;;10.74;73.11;101568.69;5060887;28;20212;-71
2021/10/17 07:51:57;;;;;;;10.02;2.63;;;10.30;99.90;;;10.75;73.31;101559.97;5062391;28;20669;-69
2021/10/17 07:54:24;;;;;;;10.18;3.17;;;10.30;99.90;;;10.71;73.17;101566.16;5061353;28;20219;-72
2021/10/17 07:56:51;;;;;;;9.23;2.60;;;10.40;99.90;;;10.75;73.17;101573.06;5064422;28;20211;-70
2021/10/17 07:59:19;;;;;;;9.60;2.70;;;10.40;99.90;;;10.76;72.99;101573.03;5068136;28;20618;-71
2021/10/17 08:01:46;;;;;;;7.57;2.25;;;10.40;99.90;;;10.75;72.77;101571.28;5072104;28;20238;-70
2021/10/17 08:04:28;;;;;;;8.63;2.60;;;10.40;99.90;;;10.73;72.67;101577.47;5072129;28;20212;-69
2021/10/17 08:07:06;;;;;;;11.38;2.80;;;10.40;99.90;;;10.77;72.84;101572.09;5085739;28;20957;-72
2021/10/17 08:09:34;;;;;;;9.98;2.80;;;10.40;99.90;;;10.79;72.81;101574.69;5064601;28;20717;-71
2021/10/17 08:12:02;;;;;;;9.85;2.80;;;10.50;99.90;;;10.82;72.91;101569.38;5068074;28;20200;-71
2021/10/17 08:14:32;;;;;;;8.90;2.72;;;10.50;99.90;;;10.84;72.73;101571.06;5082704;28;20238;-72
2021/10/17 08:16:59;;;;;;;9.18;2.80;;;10.60;99.90;;;10.88;72.73;101564.00;5067375;28;20284;-70
2021/10/17 08:19:46;;;;;;;9.15;2.72;;;10.60;99.90;;;10.94;72.67;101569.06;5066256;28;20205;-70
2021/10/17 08:22:16;;;;;;;8.55;2.20;;;10.70;99.90;;;10.99;72.28;101572.44;5061158;28;20193;-72
2021/10/17 08:24:43;;;;;;;11.38;2.72;;;10.70;99.90;;;11.02;71.90;101572.34;5072085;28;20235;-73
2021/10/17 08:27:10;;;;;;;10.10;2.53;;;10.80;99.90;;;11.06;72.14;101576.63;5067891;28;20208;-71
2021/10/17 08:29:37;;;;;;;9.73;2.75;;;10.80;99.90;;;11.09;71.79;101579.16;5067283;28;20196;-71
2021/10/17 08:32:04;;;;;;;13.73;2.78;;;10.80;99.90;;;11.11;71.70;101569.50;5081636;28;20197;-71
2021/10/17 08:34:37;;;;;;;9.93;2.83;;;10.80;99.90;;;11.18;71.60;101571.06;5068783;28;20238;-71
2021/10/17 08:37:04;;;;;;;12.70;2.80;;;10.90;99.90;;;11.25;71.33;101564.78;5075803;28;20200;-71
2021/10/17 08:39:50;;;;;;;10.65;2.83;;;10.90;99.90;;;11.28;71.25;101569.94;5077094;28;20266;-71
2021/10/17 08:42:22;;;;;;;8.68;2.75;;;11.00;99.90;;;11.32;70.89;101572.41;5078608;28;20192;-70
2021/10/17 08:44:55;;;;;;;9.82;2.40;;;11.00;99.90;;;11.34;70.65;101568.00;5073941;28;20657;-71
2021/10/17 08:47:25;;;;;;;10.68;3.35;;;11.00;99.90;;;11.38;70.66;101564.41;5078953;28;20894;-71
2021/10/17 08:49:53;;;;;;;10.30;2.65;;;11.10;99.90;;;11.45;70.13;101565.09;5076637;28;20188;-72
2021/10/17 08:52:22;;;;;;;10.73;2.85;;;11.10;99.90;;;11.50;69.76;101567.59;5073533;28;20188;-71
2021/10/17 08:54:55;;;;;;;14.35;4.35;;;11.20;99.90;;;11.55;69.58;101560.44;5072694;28;20211;-70
2021/10/17 08:57:23;;;;;;;11.88;3.45;;;11.30;99.90;;;11.60;69.36;101559.44;5068689;28;20193;-70
2021/10/17 08:59:52;;;;;;;10.18;2.90;;;11.30;99.90;;;11.67;68.91;101562.78;5090962;28;20183;-72
2021/10/17 09:02:24;;;;;;;13.35;3.00;;;11.40;99.90;;;11.74;68.82;101552.06;5074210;28;20196;-72
2021/10/17 09:05:04;;;;;;;8.40;2.40;;;11.50;99.90;;;11.75;68.77;101553.78;5069995;28;20211;-71
2021/10/17 09:07:52;;;;;;;11.38;3.30;;;11.50;99.90;;;11.85;67.61;101550.00;5078939;28;20774;-70
2021/10/17 09:10:23;;;;;;;10.90;3.13;;;11.50;99.90;;;11.87;67.58;101548.16;5078207;28;20283;-70
2021/10/17 09:12:52;;;;;;;10.43;2.97;;;11.50;99.90;;;11.88;67.74;101547.28;5071709;28;20232;-72
2021/10/17 09:15:23;;;;;;;11.57;2.80;;;11.60;99.90;;;11.92;66.91;101541.00;5075439;28;20204;-71
2021/10/17 09:18:12;;;;;;;12.35;3.20;;;11.60;99.90;;;12.04;67.17;101539.81;5073764;28;20179;-70
2021/10/17 09:21:11;;;;;;;11.57;3.13;;;11.80;99.90;;;12.17;66.84;101542.00;5060777;28;20204;-71
2021/10/17 09:23:42;;;;;;;12.30;2.88;;;11.90;99.90;;;12.27;66.46;101538.19;5075054;28;20212;-69
2021/10/17 09:26:15;;;;;;;8.65;2.72;;;12.00;99.90;;;12.31;66.24;101539.81;5075266;28;20273;-70
2021/10/17 09:28:42;;;;;;;10.82;3.25;;;12.10;99.90;;;12.32;66.16;101544.16;5082026;28;20200;-70
2021/10/17 09:31:13;;;;;;;12.00;3.10;;;12.10;99.90;;;12.31;65.90;101547.69;5087460;28;20234;-72
2021/10/17 09:33:47;;;;;;;13.20;2.95;;;12.10;99.90;;;12.31;65.83;101529.31;5070980;28;20212;-70
2021/10/17 09:36:29;;;;;;;10.23;2.58;;;12.10;99.90;;;12.32;65.86;101546.78;5066202;28;20282;-71
2021/10/17 09:39:14;;;;;;;9.02;2.65;;;12.10;99.90;;;12.32;66.12;101536.28;5067063;28;20205;-71
2021/10/17 09:42:01;;;;;;;8.73;2.60;;;12.10;99.90;;;12.31;65.87;101545.06;5062351;28;20212;-71
2021/10/17 09:44:41;;;;;;;11.32;3.28;;;12.10;99.90;;;12.34;65.73;101544.97;5067595;28;20243;-69
2021/10/17 09:47:10;;;;;;;10.57;2.95;;;12.10;99.90;;;12.36;65.84;101543.16;5074502;28;20222;-71
2021/10/17 09:49:37;;;;;;;9.73;2.50;;;12.20;99.90;;;12.39;65.52;101548.31;5086728;28;20206;-71
2021/10/17 09:52:14;;;;;;;12.30;3.20;;;12.20;99.90;;;12.43;65.83;101555.19;5105948;28;20245;-71
2021/10/17 09:54:44;;;;;;;12.93;3.13;;;12.20;99.90;;;12.43;65.81;101551.69;5088302;28;20200;-69
2021/10/17 09:57:12;;;;;;;10.98;2.60;;;12.20;99.90;;;12.48;65.92;101557.66;5062282;28;20193;-71
2021/10/17 09:59:39;;;;;;;8.55;2.30;;;12.20;99.90;;;12.54;65.73;101547.81;5079027;28;20261;-70
2021/10/17 10:02:10;;;;;;;8.95;2.50;;;12.20;99.90;;;12.61;65.34;101538.84;5079582;28;20196;-71
2021/10/17 10:04:40;;;;;;;8.15;2.17;;;12.30;99.90;;;12.68;65.12;101534.25;5068236;28;20981;-71
2021/10/17 10:07:09;;;;;;;10.68;2.50;;;12.40;99.90;;;12.77;65.16;101543.59;5064910;28;20208;-71
2021/10/17 10:09:36;;;;;;;9.40;2.83;;;12.50;99.90;;;12.83;64.92;101531.09;5059480;28;20189;-69
2021/10/17 10:12:05;;;;;;;11.63;3.03;;;12.60;99.90;;;12.88;64.61;101533.59;5066553;28;20207;-70
2021/10/17 10:14:36;;;;;;;13.30;3.10;;;12.70;99.90;;;12.90;64.37;101542.25;5064798;28;20236;-72
2021/10/17 10:17:05;;;;;;;10.70;2.90;;;12.70;99.90;;;12.94;64.41;101536.88;5076252;28;20250;-71
2021/10/17 10:19:33;;;;;;;14.60;2.97;;;12.80;99.90;;;12.97;64.63;101542.00;5066330;28;20748;-71
2021/10/17 10:22:01;;;;;;;14.63;2.90;;;12.80;99.90;;;12.99;64.53;101539.34;5062315;28;20199;-70